x

Nantucket 54nm Southeast Of Nantucket (44008) Wave Buoy

6:50am - Fri 28th Jul 2017 All times are EDT. -4 hours from GMT.

  • Sig Wave height 2.6ft
  • Swell Direction
  • Peak Period 8s
  • Average Period 6s
  • Wind
    7mph, 9mph gusts
  • Sea Temp 65°f
  • Air Temp 67°f
  • Sea Pressure 1011.7mb
  • Nantucket 54nm Southeast Of Nantucket
  • Nantucket 54nm Southeast Of Nantucket

More Historic Weather Station data

Upgrade to MSW Pro to gain access to the past 30 days of data for over 8000 Wavebouys and Weather Stations around the globe.

Join Pro

Comparision Forecast

View Surf forecast
   
Fri 07/28 6:50am 2.5ft 8s 6s 7 9 mph 1011.7mb 65f 67f
5:50am 2.5ft 8s 6s 9 9 mph 1011.6mb 65f 67f
4:50am 2.5ft 8s 6s 7 9 mph 1011.5mb 65f 67f
3:50am 2.5ft 8s 6s 7 9 mph 1011.4mb 66f 66f
2:50am 2.5ft 7s 6s 7 7 mph 1011.8mb 66f 67f
1:50am 2.5ft 8s 6s 7 9 mph 1012.3mb 65f 67f
12:50am 2.5ft 8s 6s 7 7 mph 1012.7mb 65f 66f
Thu 07/27 11:50pm 2.5ft 8s 6s 7 9 mph 1012.7mb 64f 67f
10:50pm 3ft 8s 6s 9 9 mph 1013mb 65f 66f
9:50pm 3ft 8s 6s 4 4 mph 1013.6mb 65f 66f
8:50pm 3ft 8s 6s 4 4 mph 1014mb 66f 66f
7:50pm 3ft 8s 6s 2 4 mph 1013.9mb 66f 66f
6:50pm 3ft 8s 6s 7 9 mph 1013.7mb 65f 67f
5:50pm 2.5ft 8s 6s 7 7 mph 1013.9mb 69f 67f
4:50pm 3ft 8s 7s 2 4 mph 1014.6mb 71f 67f
3:50pm 2.5ft 8s 6s 2 2 mph 1015.2mb 71f 67f
2:50pm 3ft 9s 6s  -  2 mph 1015.6mb 70f 68f
1:50pm 3ft 8s 6s  -  2 mph 1016.2mb 67f 66f
12:50pm 3ft 8s 6s 2 4 mph 1016.6mb 65f 64f
11:50am 3ft 8s 6s 7 7 mph 1016.9mb 64f 64f
10:50am 3.5ft 8s 6s 4 4 mph 1017.4mb 64f 64f
9:50am 3.5ft 7s 6s 7 9 mph 1017.5mb 64f 63f
8:50am 4ft 8s 6s 7 7 mph 1017.9mb 64f 62f
7:50am 3.5ft 8s 6s 7 7 mph 1018.4mb 64f 62f
6:50am 3.5ft 8s 6s 7 7 mph 1018.4mb 64f 61f
5:50am 3.5ft 8s 6s 7 7 mph 1018.4mb 64f 61f
4:50am 3.5ft 8s 6s 4 7 mph 1018.6mb 64f 63f
3:50am 3.5ft 8s 7s 4 7 mph 1018.7mb 64f 63f
2:50am 3.5ft 8s 6s 4 7 mph 1018.7mb 64f 63f
1:50am 4ft 8s 6s 7 9 mph 1019mb 64f 63f
12:50am 4ft 9s 6s 9 11 mph 1019.5mb 64f 62f
Wed 07/26 11:50pm 4.5ft 9s 6s 9 9 mph 1020.2mb 64f 61f
10:50pm 4.5ft 8s 6s 4 7 mph 1021.1mb 64f 61f
9:50pm 4ft 8s 6s 4 7 mph 1021.4mb 64f 62f
8:50pm 3.5ft 8s 5s 7 9 mph 1021.1mb 64f 62f
7:50pm 3.5ft 7s 6s 9 11 mph 1020.9mb 64f 62f
6:50pm 3.5ft 8s 6s 9 9 mph 1021mb 64f 61f
5:50pm 3.5ft 8s 6s 11 13 mph 1021mb 64f 63f
4:50pm 3.5ft 8s 6s 11 13 mph 1020.9mb 64f 62f
3:50pm 3.5ft 8s 6s 13 13 mph 1021.3mb 64f 62f
2:50pm 3.5ft 9s 6s 11 13 mph 1021.7mb 64f 62f
1:50pm 3.5ft 8s 6s 9 11 mph 1022.5mb 64f 62f
12:50pm 3ft 8s 5s 11 13 mph 1022.3mb 64f 62f
11:50am 3.5ft 8s 6s 13 16 mph 1022.8mb 63f 61f
10:50am 3.5ft 8s 6s 11 13 mph 1023.1mb 63f 61f
9:50am 3.5ft 7s 5s 11 13 mph 1022.7mb 64f 61f
8:50am 3.5ft 7s 5s 18 20 mph 1022.3mb 64f 60f
7:50am 4ft 8s 5s 18 22 mph 1022mb 64f 61f
6:50am 4ft 7s 5s 18 20 mph 1021.5mb 64f 61f
5:50am 4.5ft 7s 5s 16 18 mph 1021.5mb 64f 60f
4:50am 4ft 8s 5s 11 13 mph 1021.2mb 64f 60f
3:50am 3.5ft 7s 5s 18 20 mph 1020.7mb 64f 60f
2:50am 3.5ft 8s 5s 13 18 mph 1020.9mb 64f 60f
1:50am 3.5ft 7s 5s 13 13 mph 1020.8mb 64f 61f
12:50am 4ft 8s 6s 13 18 mph 1020.6mb 64f 60f
Tue 07/25 11:50pm 4ft 8s 6s 16 20 mph 1020.4mb 64f 60f
10:50pm 4ft 7s 6s 16 18 mph 1020.3mb 64f 60f
9:50pm 4.5ft 8s 6s 16 20 mph 1020mb 63f 61f
8:50pm 5ft 7s 6s 16 18 mph 1019.7mb 63f 60f
7:50pm 5ft 7s 6s 16 20 mph 1019.1mb 63f 60f
6:50pm 5.5ft 7s 6s 16 20 mph 1018.8mb 63f 60f
5:50pm 5.5ft 7s 6s 13 16 mph 1018.7mb 63f 59f
4:50pm 6ft 8s 6s 13 16 mph 1018.6mb 64f 59f
3:50pm 6ft 8s 6s 13 16 mph 1018.5mb 64f 59f
2:50pm 5ft 8s 6s 11 13 mph 1018mb 65f 60f
1:50pm 5ft 8s 6s 16 18 mph 1017.5mb 65f 61f
12:50pm 5ft 8s 7s 13 18 mph 1017.1mb 64f 61f
11:50am 5ft 8s 7s 11 16 mph 1017mb 64f 60f
10:50am 5.5ft 7s 6s 11 13 mph 1016.7mb 63f 59f
9:50am 5ft 8s 6s 9 11 mph 1016.6mb 60f 59f
8:50am 6.5ft 7s 7s 11 13 mph 1016.1mb 60f 59f
7:50am 7ft 7s 7s 9 11 mph 1015.7mb 61f 59f
6:50am 6ft 8s 7s 7 9 mph 1014.9mb 61f 58f
5:50am 6ft 8s 7s 16 18 mph 1013.8mb 62f 59f
4:50am 6ft 8s 6s 16 18 mph 1013.4mb 63f 61f
3:50am 6ft 8s 6s 16 18 mph 1012.7mb 64f 62f
2:50am 6ft 8s 6s 16 18 mph 1012.5mb 65f 62f
1:50am 6ft 8s 6s 16 18 mph 1011.9mb 65f 63f
12:50am 6ft 8s 6s 16 20 mph 1011.8mb 66f 64f
Mon 07/24 11:50pm 5.5ft 7s 5s 16 18 mph 1011.2mb 66f 64f
10:50pm 5ft 7s 5s 18 22 mph 1010.1mb 66f 65f
9:50pm 5ft 6s 5s 20 25 mph 1009.3mb 66f 71f
8:50pm 4.5ft 6s 5s 13 16 mph 1008.7mb 66f 70f
7:50pm 4.5ft 5s 5s 13 16 mph 1008.6mb 66f 71f
6:50pm 4.5ft 6s 5s 11 11 mph 1008.3mb 66f 70f
5:50pm 5ft 6s 5s 11 11 mph 1008.4mb 67f 71f
4:50pm 4.5ft 5s 5s 11 16 mph 1008.4mb 67f 71f
3:50pm 4.5ft 5s 5s 13 18 mph 1008.3mb 66f 71f
2:50pm 4.5ft 6s 5s 13 13 mph 1008.2mb 66f 70f
1:50pm 5ft 5s 5s 4 7 mph 1008.5mb 66f 72f
12:50pm 5ft 5s 5s 2 4 mph 1008.1mb 65f 69f